Osborn, Mississippi
Current Conditions -  °F | °C
As of 2:15 PM on Sunday 21 Dec 2014 (Local Time) from KSTF Reporting Station
Overcast Overcast  
Wind Chill: 52°   Ceiling: 2700
Heat Index: 52°   Visibility: 10mi
Dew Point: 45°   Wind: 3mph
Humidity: 76%   Direction: 40°NE
Pressure: 30.07"   Gusts: NA
Location:  33.4256°N, 88.8438°W
Report Text: KSTF 212015Z AUTO 04003KT 10SM OVC027 11/07 A3007 RMK AO2
Loading
Personal Weather Stations






























Interactive Weather Map New forecast layout! Learn more

10-Day Weather Forecast

Advertisements
Track Severe Weather on mobile